Terminal Aerodrome Forecast
Issued by NWS

Home | Current Version | Previous Version | Text Only | Print | Product List | Glossary On
Versions: 1 2 3 4 5 6 7 8 9 10 11 12 13 14 15 16 17 18 19 20 21 22 23 24 25 26 27 28 29 30
000
FTUS46 KPQR 202337
TAFONP
TAF
KONP 202337Z 2100/2124 29007KT P6SM BKN060 OVC100
     FM210800 22010KT P6SM -RA BKN025 OVC050
     FM211100 24015G22KT P6SM -SHRA BKN015 OVC025
     FM211600 31005KT P6SM VCSH SCT025 BKN050
     FM211800 34014G20KT P6SM SCT040=

USA.gov is the U.S. government's official web portal to all federal, state and local government web resources and services.